Time;durP1;ratioP1;P1;durP2;ratioP2;P2;SDS_P1;SDS_P2;PMS_P1;PMS_P2;Temp;Humidity;BMP_temperature;BMP_pressure;BME280_temperature;BME280_humidity;BME280_pressure;Samples;Min_cycle;Max_cycle;Signal;HPM_P1;HPM_P2
2023/09/26 00:00:20;;;;;;;15.23;3.30;;;21.50;68.80;;;;;;5077446;28;20028;-78
2023/09/26 00:02:48;;;;;;;22.15;3.95;;;21.50;68.60;;;;;;5091990;28;20467;-81
2023/09/26 00:05:18;;;;;;;16.02;3.42;;;21.50;68.70;;;;;;5071593;28;21469;-77
2023/09/26 00:07:48;;;;;;;15.32;3.58;;;21.50;68.60;;;;;;5071800;28;20029;-77
2023/09/26 00:10:16;;;;;;;18.63;3.38;;;21.50;68.20;;;;;;5072286;28;20861;-77
2023/09/26 00:12:43;;;;;;;17.92;3.47;;;21.50;67.80;;;;;;5072476;28;20033;-77
2023/09/26 00:15:11;;;;;;;21.98;3.92;;;21.30;67.80;;;;;;5072029;28;20025;-78
2023/09/26 00:17:41;;;;;;;22.10;4.28;;;21.30;68.40;;;;;;5083903;28;20031;-77
2023/09/26 00:20:28;;;;;;;23.20;3.45;;;21.30;68.20;;;;;;5092732;28;20463;-77
2023/09/26 00:22:55;;;;;;;24.58;4.03;;;21.40;68.10;;;;;;5092496;28;20028;-76
2023/09/26 00:25:24;;;;;;;16.52;3.28;;;21.50;67.60;;;;;;5066024;28;20025;-77
2023/09/26 00:27:52;;;;;;;17.95;3.30;;;21.60;67.60;;;;;;5071922;28;20024;-77
2023/09/26 00:30:25;;;;;;;17.58;3.58;;;21.70;67.50;;;;;;5072326;28;20048;-79
2023/09/26 00:32:52;;;;;;;16.65;3.50;;;21.70;66.60;;;;;;5072622;28;20033;-77
2023/09/26 00:35:20;;;;;;;22.58;4.32;;;21.80;66.40;;;;;;5065549;28;20511;-75
2023/09/26 00:37:52;;;;;;;19.02;3.58;;;21.80;66.10;;;;;;5074446;28;20438;-76
2023/09/26 00:40:22;;;;;;;19.73;4.20;;;22.00;66.10;;;;;;5076075;28;20025;-77
2023/09/26 00:42:50;;;;;;;23.17;3.60;;;22.00;66.00;;;;;;5075827;28;20353;-77
2023/09/26 00:45:17;;;;;;;16.38;3.50;;;22.20;65.10;;;;;;5076041;28;20032;-78
2023/09/26 00:47:47;;;;;;;22.45;3.65;;;22.10;65.10;;;;;;5075506;28;20036;-81
2023/09/26 00:50:14;;;;;;;20.55;3.95;;;22.00;65.60;;;;;;5062207;28;20103;-78
2023/09/26 00:52:53;;;;;;;19.05;3.80;;;22.10;65.30;;;;;;5092645;28;20020;-78
2023/09/26 00:55:23;;;;;;;24.17;3.58;;;22.00;65.40;;;;;;5086631;28;20081;-77
2023/09/26 00:57:53;;;;;;;20.05;3.75;;;22.20;65.40;;;;;;5075642;28;20115;-78
2023/09/26 01:00:23;;;;;;;18.55;3.70;;;22.20;65.50;;;;;;5075378;28;20025;-80
2023/09/26 01:02:50;;;;;;;26.80;4.57;;;22.20;65.10;;;;;;5075533;28;20034;-77
2023/09/26 01:05:18;;;;;;;21.17;3.95;;;22.30;64.80;;;;;;5075448;28;20021;-78
2023/09/26 01:07:46;;;;;;;21.25;3.63;;;22.20;65.20;;;;;;5081865;28;20029;-78
2023/09/26 01:10:14;;;;;;;17.60;3.50;;;22.20;65.20;;;;;;5095816;28;20045;-79
2023/09/26 01:12:42;;;;;;;20.70;4.28;;;22.30;64.80;;;;;;5095825;28;20028;-82
2023/09/26 01:15:10;;;;;;;21.60;3.80;;;22.30;64.30;;;;;;5089177;28;20119;-81
2023/09/26 01:17:37;;;;;;;17.80;3.65;;;22.30;64.40;;;;;;5075613;28;20044;-77
2023/09/26 01:20:17;;;;;;;20.00;3.60;;;22.20;64.50;;;;;;5075506;28;20103;-78
2023/09/26 01:22:46;;;;;;;18.48;4.18;;;22.30;64.40;;;;;;5075434;28;20048;-78
2023/09/26 01:25:15;;;;;;;27.92;4.10;;;22.20;64.60;;;;;;5077291;28;20475;-77
2023/09/26 01:27:43;;;;;;;15.60;3.42;;;22.10;64.70;;;;;;5075235;28;20097;-77
2023/09/26 01:30:11;;;;;;;21.50;4.03;;;22.00;64.90;;;;;;5075320;28;20025;-83
2023/09/26 01:32:38;;;;;;;16.73;3.70;;;21.90;64.80;;;;;;5074817;28;20029;-82
2023/09/26 01:35:06;;;;;;;15.38;3.35;;;21.80;64.80;;;;;;5075002;28;20033;-83
2023/09/26 01:37:35;;;;;;;20.10;4.53;;;21.80;65.10;;;;;;5072552;28;20049;-78
2023/09/26 01:40:03;;;;;;;18.25;3.65;;;21.80;65.30;;;;;;5074835;28;20092;-80
2023/09/26 01:42:30;;;;;;;14.68;3.50;;;21.70;65.60;;;;;;5074071;28;20025;-78
2023/09/26 01:44:58;;;;;;;18.90;4.25;;;21.70;65.30;;;;;;5074018;28;20353;-77
2023/09/26 01:47:49;;;;;;;17.77;3.50;;;21.60;65.00;;;;;;5075040;28;20029;-78
2023/09/26 01:50:18;;;;;;;15.95;3.28;;;21.50;65.10;;;;;;5059087;28;20141;-78
2023/09/26 01:52:46;;;;;;;18.55;3.63;;;21.50;65.30;;;;;;5074819;28;20029;-77
2023/09/26 01:55:21;;;;;;;18.23;3.15;;;21.30;65.20;;;;;;5073980;28;20491;-77
2023/09/26 01:57:50;;;;;;;20.63;3.35;;;21.30;65.60;;;;;;5074806;28;20024;-79
2023/09/26 02:00:19;;;;;;;18.00;3.40;;;21.30;65.10;;;;;;5078809;28;20036;-77
2023/09/26 02:02:50;;;;;;;16.02;3.38;;;21.30;65.10;;;;;;5074697;28;20020;-82
2023/09/26 02:05:19;;;;;;;19.65;3.83;;;21.30;65.30;;;;;;5074441;28;20028;-80
2023/09/26 02:07:48;;;;;;;19.25;3.38;;;21.30;65.40;;;;;;5074410;28;20028;-79
2023/09/26 02:10:16;;;;;;;16.50;3.47;;;21.30;65.60;;;;;;5074351;28;20068;-81
2023/09/26 02:12:47;;;;;;;12.70;3.05;;;21.30;65.50;;;;;;5074137;28;20111;-78
2023/09/26 02:15:14;;;;;;;15.88;3.38;;;21.30;65.50;;;;;;5073479;28;20060;-77
2023/09/26 02:17:43;;;;;;;16.90;3.20;;;21.40;65.60;;;;;;5077958;28;20031;-77
2023/09/26 02:20:16;;;;;;;17.42;3.38;;;21.30;65.60;;;;;;5094540;28;20437;-77
2023/09/26 02:22:46;;;;;;;15.43;3.70;;;21.30;65.70;;;;;;5091263;28;20032;-79
2023/09/26 02:25:15;;;;;;;15.23;3.20;;;21.30;66.00;;;;;;5073919;28;20364;-78
2023/09/26 02:27:43;;;;;;;16.60;3.80;;;21.30;66.00;;;;;;5074177;28;20036;-79
2023/09/26 02:30:18;;;;;;;16.60;3.53;;;21.30;66.30;;;;;;5074228;28;20050;-80
2023/09/26 02:32:46;;;;;;;19.35;3.75;;;21.20;66.00;;;;;;5078555;28;20066;-78
2023/09/26 02:35:16;;;;;;;20.90;4.20;;;21.20;66.10;;;;;;5094033;28;20040;-78
2023/09/26 02:37:44;;;;;;;19.95;4.15;;;21.20;66.30;;;;;;5075179;28;20043;-80
2023/09/26 02:40:12;;;;;;;18.05;3.35;;;21.10;66.40;;;;;;5073823;28;20100;-78
2023/09/26 02:42:45;;;;;;;16.30;4.72;;;21.10;66.60;;;;;;5073708;28;20036;-78
2023/09/26 02:45:13;;;;;;;16.98;2.90;;;21.00;66.80;;;;;;5073595;28;20082;-78
2023/09/26 02:47:42;;;;;;;18.50;3.45;;;21.00;66.90;;;;;;5073959;28;20075;-80
2023/09/26 02:50:10;;;;;;;15.18;3.42;;;20.90;67.20;;;;;;5083719;28;20067;-76
2023/09/26 02:52:41;;;;;;;19.45;3.60;;;20.90;67.10;;;;;;5073787;28;20032;-77
2023/09/26 02:55:08;;;;;;;14.65;3.28;;;20.80;67.20;;;;;;5068333;28;20044;-77
2023/09/26 02:57:36;;;;;;;22.23;3.75;;;20.80;67.30;;;;;;5062362;28;20552;-77
2023/09/26 03:00:16;;;;;;;12.52;3.10;;;20.80;67.60;;;;;;5056819;28;20070;-79
2023/09/26 03:02:45;;;;;;;22.42;3.85;;;20.80;67.70;;;;;;5058756;28;20120;-78
2023/09/26 03:05:13;;;;;;;16.48;3.60;;;20.90;67.70;;;;;;5071926;28;20056;-77
2023/09/26 03:07:41;;;;;;;18.83;3.55;;;21.00;67.60;;;;;;5071336;28;20103;-79
2023/09/26 03:10:09;;;;;;;13.23;3.20;;;21.20;67.30;;;;;;5070104;28;20028;-78
2023/09/26 03:12:36;;;;;;;11.18;2.70;;;21.30;67.10;;;;;;5064537;28;20484;-79
2023/09/26 03:15:06;;;;;;;23.27;3.90;;;21.40;66.30;;;;;;5055070;28;20033;-77
2023/09/26 03:17:33;;;;;;;13.45;3.28;;;21.50;65.60;;;;;;5069073;28;20033;-78
2023/09/26 03:20:01;;;;;;;17.52;3.47;;;21.60;64.90;;;;;;5081197;28;20020;-80
2023/09/26 03:22:28;;;;;;;12.57;3.10;;;21.60;65.00;;;;;;5092955;28;20043;-78
2023/09/26 03:24:55;;;;;;;13.80;3.00;;;21.60;64.30;;;;;;5069894;28;20021;-76
2023/09/26 03:27:24;;;;;;;13.35;3.15;;;21.60;63.80;;;;;;5072918;28;20034;-78
2023/09/26 03:29:52;;;;;;;16.80;3.10;;;21.60;63.80;;;;;;5072588;28;20039;-76
2023/09/26 03:32:20;;;;;;;19.42;3.53;;;21.50;63.70;;;;;;5073014;28;20029;-78
2023/09/26 03:34:48;;;;;;;15.90;3.35;;;21.40;63.90;;;;;;5073259;28;20487;-77
2023/09/26 03:37:15;;;;;;;20.58;3.30;;;21.40;64.30;;;;;;5068203;28;20080;-77
2023/09/26 03:39:42;;;;;;;13.82;3.15;;;21.50;63.80;;;;;;5061072;28;20029;-77
2023/09/26 03:42:11;;;;;;;14.90;3.47;;;21.30;63.50;;;;;;5084021;28;20035;-77
2023/09/26 03:44:42;;;;;;;15.82;3.65;;;21.40;63.30;;;;;;5069167;28;20108;-78
2023/09/26 03:47:09;;;;;;;12.07;3.30;;;21.30;63.10;;;;;;5072961;28;20052;-80
2023/09/26 03:49:37;;;;;;;20.10;3.95;;;21.40;63.20;;;;;;5092821;28;20428;-77
2023/09/26 03:52:04;;;;;;;16.08;3.97;;;21.40;63.20;;;;;;5089438;28;20031;-77
2023/09/26 03:54:31;;;;;;;14.90;3.83;;;21.40;62.80;;;;;;5072702;28;20112;-81
2023/09/26 03:56:59;;;;;;;12.52;3.15;;;21.40;62.50;;;;;;5087219;28;20023;-82
2023/09/26 03:59:26;;;;;;;13.98;3.30;;;21.40;62.60;;;;;;5061612;28;20024;-79
2023/09/26 04:01:53;;;;;;;13.27;3.08;;;21.40;62.90;;;;;;5072456;28;20028;-81
2023/09/26 04:04:21;;;;;;;11.38;3.78;;;21.50;62.90;;;;;;5063729;28;20033;-78
2023/09/26 04:06:48;;;;;;;14.63;3.00;;;21.50;63.00;;;;;;5051394;28;20464;-80
2023/09/26 04:09:16;;;;;;;14.27;3.13;;;21.50;62.60;;;;;;5055150;28;20051;-80
2023/09/26 04:11:44;;;;;;;11.68;2.88;;;21.50;61.80;;;;;;5063482;28;20013;-80
2023/09/26 04:14:11;;;;;;;10.57;2.92;;;21.50;61.70;;;;;;5091654;28;20043;-76
2023/09/26 04:16:39;;;;;;;12.45;2.65;;;21.50;61.30;;;;;;5086908;28;20052;-76
2023/09/26 04:19:10;;;;;;;10.85;2.75;;;21.60;61.50;;;;;;5076372;28;20024;-76
2023/09/26 04:21:37;;;;;;;9.90;2.90;;;21.70;61.10;;;;;;5076184;28;20538;-76
2023/09/26 04:24:05;;;;;;;9.52;2.55;;;21.80;61.20;;;;;;5076128;28;20028;-76
2023/09/26 04:26:33;;;;;;;8.05;2.15;;;21.90;61.20;;;;;;5075803;28;20497;-76
2023/09/26 04:29:00;;;;;;;15.75;3.05;;;22.00;59.40;;;;;;5075735;28;20037;-77
2023/09/26 04:31:27;;;;;;;9.75;2.60;;;22.10;59.50;;;;;;5090432;28;20028;-76
2023/09/26 04:33:55;;;;;;;13.40;2.40;;;22.30;60.30;;;;;;5076187;28;20095;-81
2023/09/26 04:36:22;;;;;;;8.55;2.38;;;22.40;60.40;;;;;;5075717;28;20116;-76
2023/09/26 04:38:50;;;;;;;14.55;3.35;;;22.50;59.50;;;;;;5071433;28;20099;-76
2023/09/26 04:41:17;;;;;;;11.27;2.92;;;22.60;59.00;;;;;;5075768;28;20025;-76
2023/09/26 04:43:45;;;;;;;9.30;2.78;;;22.70;59.60;;;;;;5073014;28;20023;-76
2023/09/26 04:46:13;;;;;;;14.05;3.00;;;22.80;59.50;;;;;;5074514;28;20028;-77
2023/09/26 04:48:44;;;;;;;11.27;3.17;;;22.90;59.40;;;;;;5096097;28;20123;-81
2023/09/26 04:51:15;;;;;;;11.18;2.80;;;23.00;59.30;;;;;;5096145;28;20540;-81
2023/09/26 04:53:43;;;;;;;13.05;3.05;;;23.00;59.20;;;;;;5096217;28;20493;-80
2023/09/26 04:56:14;;;;;;;11.75;3.05;;;23.10;58.60;;;;;;5096195;28;20027;-83
2023/09/26 04:58:41;;;;;;;12.65;3.42;;;23.20;58.30;;;;;;5086522;28;20009;-81
2023/09/26 05:01:16;;;;;;;14.77;3.03;;;23.30;58.40;;;;;;5075330;28;20177;-76
2023/09/26 05:03:44;;;;;;;12.13;3.15;;;23.30;56.60;;;;;;5075121;28;20103;-79
2023/09/26 05:06:13;;;;;;;12.38;2.78;;;23.30;56.90;;;;;;5075002;28;20040;-77
2023/09/26 05:08:41;;;;;;;11.63;2.53;;;23.20;57.40;;;;;;5075108;28;20433;-77
2023/09/26 05:11:14;;;;;;;9.07;2.72;;;23.30;57.00;;;;;;5075480;28;20021;-76
2023/09/26 05:13:43;;;;;;;11.68;3.00;;;23.30;57.00;;;;;;5074065;28;20024;-77
2023/09/26 05:16:13;;;;;;;11.10;2.92;;;23.40;57.00;;;;;;5073671;28;20502;-77
2023/09/26 05:18:40;;;;;;;12.90;2.70;;;23.50;56.90;;;;;;5075499;28;20109;-76
2023/09/26 05:21:08;;;;;;;16.33;3.15;;;23.50;57.00;;;;;;5074431;28;20479;-78
2023/09/26 05:23:36;;;;;;;7.63;2.28;;;23.60;56.30;;;;;;5075351;28;20116;-77
2023/09/26 05:26:08;;;;;;;15.38;3.17;;;23.60;56.20;;;;;;5074268;28;20074;-78
2023/09/26 05:28:35;;;;;;;11.85;3.13;;;23.70;55.70;;;;;;5075087;28;20032;-77
2023/09/26 05:31:04;;;;;;;11.45;3.05;;;23.70;55.90;;;;;;5065688;28;20372;-77
2023/09/26 05:33:32;;;;;;;11.50;2.50;;;23.80;55.30;;;;;;5063374;28;20119;-77
2023/09/26 05:35:59;;;;;;;11.15;2.75;;;23.70;55.60;;;;;;5073358;28;20096;-77
2023/09/26 05:38:26;;;;;;;8.00;2.53;;;23.70;55.40;;;;;;5066394;28;20037;-77
2023/09/26 05:40:54;;;;;;;11.70;2.72;;;23.60;55.20;;;;;;5066347;28;20380;-77
2023/09/26 05:43:22;;;;;;;14.00;2.90;;;23.60;54.60;;;;;;5074888;28;20378;-77
2023/09/26 05:45:51;;;;;;;9.30;2.53;;;23.50;54.50;;;;;;5068413;28;20025;-77
2023/09/26 05:48:19;;;;;;;11.45;3.00;;;23.30;54.70;;;;;;5074726;28;20127;-78
2023/09/26 05:50:47;;;;;;;11.88;3.00;;;23.30;55.10;;;;;;5065275;28;20024;-77
2023/09/26 05:53:14;;;;;;;10.73;2.83;;;23.10;55.30;;;;;;5066884;28;20089;-77
2023/09/26 05:55:42;;;;;;;11.23;2.75;;;23.00;55.60;;;;;;5076994;28;20667;-79
2023/09/26 05:58:09;;;;;;;10.68;2.72;;;23.00;56.00;;;;;;5075207;28;20415;-76
2023/09/26 06:00:37;;;;;;;14.65;2.58;;;22.90;56.10;;;;;;5073552;28;20479;-77
2023/09/26 06:03:04;;;;;;;8.85;2.83;;;22.90;56.10;;;;;;5072825;28;20391;-80
2023/09/26 06:05:32;;;;;;;13.35;2.85;;;22.80;55.90;;;;;;5069478;28;20072;-77
2023/09/26 06:07:59;;;;;;;12.07;3.10;;;22.80;55.60;;;;;;5065759;28;20497;-77
2023/09/26 06:10:26;;;;;;;12.18;2.80;;;22.70;55.70;;;;;;5071043;28;20493;-78
2023/09/26 06:12:54;;;;;;;11.95;2.83;;;22.60;55.80;;;;;;5060795;28;20021;-78
2023/09/26 06:15:22;;;;;;;13.43;2.38;;;22.40;55.90;;;;;;5077612;28;20063;-76
2023/09/26 06:17:50;;;;;;;11.30;2.38;;;22.20;56.80;;;;;;5069011;28;20090;-77
2023/09/26 06:20:18;;;;;;;11.77;2.63;;;22.20;57.00;;;;;;5057204;28;20029;-76
2023/09/26 06:22:45;;;;;;;10.55;2.20;;;22.00;57.10;;;;;;5071733;28;20043;-78
2023/09/26 06:25:12;;;;;;;11.27;2.28;;;22.00;57.30;;;;;;5058646;28;20025;-81
2023/09/26 06:27:40;;;;;;;8.48;2.53;;;21.90;57.50;;;;;;5065325;28;20380;-79
2023/09/26 06:30:10;;;;;;;11.82;2.88;;;21.80;58.10;;;;;;5076679;28;20037;-81
2023/09/26 06:32:37;;;;;;;10.35;2.47;;;21.80;58.30;;;;;;5072220;28;20036;-79
2023/09/26 06:35:05;;;;;;;10.02;2.25;;;21.70;58.70;;;;;;5076966;28;20111;-79
2023/09/26 06:37:33;;;;;;;8.27;2.47;;;21.60;58.80;;;;;;5074882;28;20044;-76
2023/09/26 06:40:04;;;;;;;10.52;2.63;;;21.60;59.10;;;;;;5055524;28;20024;-77
2023/09/26 06:42:35;;;;;;;8.45;2.40;;;21.50;59.70;;;;;;5061167;28;20496;-77
2023/09/26 06:45:03;;;;;;;8.32;2.17;;;21.40;60.00;;;;;;5053237;28;20036;-79
2023/09/26 06:47:33;;;;;;;8.52;2.10;;;21.40;59.90;;;;;;5066938;28;20024;-77
2023/09/26 06:50:00;;;;;;;9.65;2.58;;;21.30;60.10;;;;;;5058654;28;20089;-80
2023/09/26 06:52:27;;;;;;;7.47;2.35;;;21.30;60.30;;;;;;5059275;28;20674;-77
2023/09/26 06:54:55;;;;;;;10.27;2.60;;;21.20;60.40;;;;;;5057396;28;20484;-78
2023/09/26 06:57:26;;;;;;;9.07;2.67;;;21.20;60.90;;;;;;5060246;28;20024;-77
2023/09/26 06:59:55;;;;;;;9.55;3.00;;;21.10;60.80;;;;;;5054673;28;20032;-76
2023/09/26 07:02:24;;;;;;;9.02;2.58;;;21.10;61.40;;;;;;5063854;28;20020;-77
2023/09/26 07:04:54;;;;;;;9.38;3.03;;;21.00;61.60;;;;;;5056600;28;20033;-77
2023/09/26 07:07:23;;;;;;;10.40;2.50;;;21.00;62.00;;;;;;5063581;28;20460;-78
2023/09/26 07:09:50;;;;;;;11.35;3.00;;;20.80;61.90;;;;;;5064441;28;20404;-78
2023/09/26 07:12:17;;;;;;;9.27;2.53;;;20.80;62.10;;;;;;5058364;28;20025;-77
2023/09/26 07:14:45;;;;;;;11.98;2.50;;;20.80;62.70;;;;;;5069346;28;20119;-77
2023/09/26 07:17:12;;;;;;;13.45;2.78;;;20.70;63.00;;;;;;5067281;28;20020;-77
2023/09/26 07:19:40;;;;;;;9.48;2.10;;;20.70;63.00;;;;;;5059603;28;20017;-76
2023/09/26 07:22:07;;;;;;;10.27;2.90;;;20.60;63.20;;;;;;5072058;28;20086;-79
2023/09/26 07:24:36;;;;;;;13.93;2.97;;;20.70;64.40;;;;;;5072785;28;20095;-77
2023/09/26 07:27:04;;;;;;;9.35;2.45;;;20.50;64.50;;;;;;5059993;28;20043;-76
2023/09/26 07:29:32;;;;;;;14.75;2.38;;;20.50;64.40;;;;;;5065530;28;20068;-77
2023/09/26 07:31:59;;;;;;;12.45;2.53;;;20.50;64.80;;;;;;5057464;28;20021;-79
2023/09/26 07:34:27;;;;;;;13.68;3.22;;;20.40;65.20;;;;;;5060081;28;20387;-82
2023/09/26 07:36:54;;;;;;;9.52;2.70;;;20.40;65.30;;;;;;5060394;28;20447;-82
2023/09/26 07:39:22;;;;;;;14.70;3.17;;;20.30;65.10;;;;;;5056026;28;20121;-78
2023/09/26 07:41:50;;;;;;;11.82;2.92;;;20.30;65.40;;;;;;5053779;28;20025;-78
2023/09/26 07:44:17;;;;;;;11.70;2.72;;;20.30;65.30;;;;;;5068799;28;20028;-79
2023/09/26 07:46:44;;;;;;;15.48;2.85;;;20.30;65.50;;;;;;5053042;28;20108;-78
2023/09/26 07:49:13;;;;;;;11.15;2.83;;;20.30;65.70;;;;;;5055610;28;20036;-77
2023/09/26 07:51:40;;;;;;;14.18;2.40;;;20.30;65.80;;;;;;5061799;28;20019;-77
2023/09/26 07:54:08;;;;;;;11.30;2.70;;;20.30;66.30;;;;;;5064814;28;20056;-78
2023/09/26 07:56:35;;;;;;;11.50;2.75;;;20.20;66.60;;;;;;5074971;28;20031;-79
2023/09/26 07:59:03;;;;;;;9.25;2.72;;;20.20;66.60;;;;;;5070630;28;20486;-77
2023/09/26 08:01:31;;;;;;;12.10;2.60;;;20.20;66.70;;;;;;5067740;28;20024;-77
2023/09/26 08:03:58;;;;;;;7.93;2.70;;;20.20;67.00;;;;;;5060462;28;20020;-79
2023/09/26 08:06:26;;;;;;;13.63;2.67;;;20.20;67.20;;;;;;5058740;28;20033;-78
2023/09/26 08:08:53;;;;;;;7.75;2.38;;;20.20;67.30;;;;;;5067588;28;20115;-77
2023/09/26 08:11:21;;;;;;;8.80;2.47;;;20.10;67.40;;;;;;5061005;28;20017;-77
2023/09/26 08:13:48;;;;;;;8.73;2.40;;;20.10;67.60;;;;;;5061478;28;20103;-77
2023/09/26 08:16:15;;;;;;;9.82;2.60;;;20.10;67.80;;;;;;5069284;28;20509;-76
2023/09/26 08:18:43;;;;;;;7.63;2.50;;;20.00;67.60;;;;;;5072447;28;20025;-77
2023/09/26 08:21:11;;;;;;;10.07;2.70;;;20.00;67.60;;;;;;5064104;28;20048;-77
2023/09/26 08:23:38;;;;;;;12.65;3.50;;;20.00;67.40;;;;;;5066950;28;20075;-78
2023/09/26 08:26:11;;;;;;;13.30;2.83;;;20.00;67.40;;;;;;5056170;28;20060;-79
2023/09/26 08:28:42;;;;;;;12.45;2.88;;;20.00;67.50;;;;;;5059124;28;20036;-81
2023/09/26 08:31:15;;;;;;;13.20;2.72;;;20.00;67.40;;;;;;5070067;28;20085;-81
2023/09/26 08:33:44;;;;;;;15.13;2.85;;;20.00;67.70;;;;;;5067967;28;20093;-79
2023/09/26 08:36:21;;;;;;;12.10;2.78;;;19.90;68.20;;;;;;5066977;28;20041;-78
2023/09/26 08:38:51;;;;;;;17.35;3.83;;;19.90;68.40;;;;;;5052001;28;20033;-80
2023/09/26 08:41:19;;;;;;;14.27;4.40;;;19.80;68.80;;;;;;5054816;28;20056;-79
2023/09/26 08:43:47;;;;;;;10.55;2.75;;;19.80;68.60;;;;;;5069759;28;20096;-80
2023/09/26 08:46:14;;;;;;;10.68;2.85;;;19.80;68.90;;;;;;5066538;28;20024;-80
2023/09/26 08:48:43;;;;;;;11.93;3.03;;;19.80;68.80;;;;;;5070264;28;20036;-78
2023/09/26 08:51:10;;;;;;;12.40;2.83;;;19.80;68.90;;;;;;5066153;28;20054;-78
2023/09/26 08:53:38;;;;;;;11.30;4.03;;;19.80;69.50;;;;;;5072050;28;20043;-77
2023/09/26 08:56:05;;;;;;;10.70;3.15;;;19.70;69.10;;;;;;5072387;28;20464;-81
2023/09/26 08:58:33;;;;;;;12.50;2.85;;;19.70;69.20;;;;;;5063749;28;20032;-77
2023/09/26 09:01:02;;;;;;;18.83;2.90;;;19.70;69.70;;;;;;5071539;28;20174;-78
2023/09/26 09:03:30;;;;;;;13.52;3.25;;;19.70;70.20;;;;;;5073353;28;20032;-79
2023/09/26 09:05:57;;;;;;;10.70;3.10;;;19.70;70.80;;;;;;5056623;28;20037;-76
2023/09/26 09:08:24;;;;;;;10.75;2.92;;;19.70;71.10;;;;;;5054840;28;20490;-76
2023/09/26 09:10:54;;;;;;;13.75;3.67;;;19.60;71.30;;;;;;5055230;28;20028;-79
2023/09/26 09:13:33;;;;;;;13.32;3.70;;;19.60;71.60;;;;;;5066039;28;20021;-77
2023/09/26 09:16:20;;;;;;;10.13;3.20;;;19.60;71.50;;;;;;5073564;28;20028;-78
2023/09/26 09:19:01;;;;;;;12.88;2.92;;;19.60;71.50;;;;;;5065818;28;20162;-76
2023/09/26 09:21:34;;;;;;;9.30;2.22;;;19.60;72.20;;;;;;5058149;28;20036;-78
2023/09/26 09:24:04;;;;;;;9.07;3.15;;;19.70;72.60;;;;;;5069793;28;20025;-77
2023/09/26 09:26:34;;;;;;;14.75;3.85;;;19.70;72.20;;;;;;5062210;28;20032;-79
2023/09/26 09:29:23;;;;;;;10.13;3.53;;;19.60;72.30;;;;;;5053663;28;20135;-78
2023/09/26 09:31:51;;;;;;;12.85;3.28;;;19.60;72.90;;;;;;5055048;28;20013;-79
2023/09/26 09:34:22;;;;;;;12.07;3.35;;;19.60;73.50;;;;;;5073211;28;20530;-80
2023/09/26 09:36:50;;;;;;;10.20;2.50;;;19.50;73.60;;;;;;5067051;28;20037;-78
2023/09/26 09:39:22;;;;;;;8.48;2.80;;;19.60;74.30;;;;;;5074646;28;20033;-79
2023/09/26 09:41:51;;;;;;;10.68;3.10;;;19.50;74.60;;;;;;5072124;28;20368;-80
2023/09/26 09:44:18;;;;;;;13.15;3.60;;;19.50;74.40;;;;;;5058455;28;20025;-80
2023/09/26 09:46:48;;;;;;;7.47;2.58;;;19.50;74.80;;;;;;5065069;28;20029;-80
2023/09/26 09:49:19;;;;;;;9.35;2.80;;;19.40;75.00;;;;;;5054357;28;20041;-79
2023/09/26 09:51:49;;;;;;;14.13;3.83;;;19.40;74.60;;;;;;5061527;28;20444;-78
2023/09/26 09:54:18;;;;;;;16.85;3.70;;;19.50;74.20;;;;;;5066440;28;20036;-80
2023/09/26 09:56:54;;;;;;;14.63;3.30;;;19.50;74.30;;;;;;5064574;28;20494;-79
2023/09/26 09:59:23;;;;;;;20.15;3.17;;;19.50;75.00;;;;;;5070954;28;20043;-79
2023/09/26 10:01:52;;;;;;;9.63;3.28;;;19.40;75.70;;;;;;5069183;28;20021;-82
2023/09/26 10:04:21;;;;;;;15.27;3.28;;;19.30;75.60;;;;;;5067840;28;20493;-79
2023/09/26 10:06:49;;;;;;;10.18;3.28;;;19.20;76.00;;;;;;5067944;28;20016;-79
2023/09/26 10:09:20;;;;;;;15.77;3.65;;;19.30;76.00;;;;;;5071500;28;20049;-79
2023/09/26 10:11:48;;;;;;;12.57;3.00;;;19.30;75.80;;;;;;5057054;28;20075;-78
2023/09/26 10:14:22;;;;;;;7.85;3.17;;;19.30;76.00;;;;;;5054105;28;20343;-76
2023/09/26 10:16:55;;;;;;;13.35;3.30;;;19.30;75.80;;;;;;5054631;28;20379;-79
2023/09/26 10:19:28;;;;;;;10.48;3.08;;;19.30;75.60;;;;;;5056203;28;20048;-82
2023/09/26 10:22:32;;;;;;;9.18;2.72;;;19.30;75.30;;;;;;5059704;28;20102;-79
2023/09/26 10:25:02;;;;;;;13.00;3.60;;;19.30;75.30;;;;;;5065135;28;20071;-79
2023/09/26 10:27:32;;;;;;;8.88;3.40;;;19.30;75.40;;;;;;5069303;28;20494;-78
2023/09/26 10:30:01;;;;;;;10.38;3.63;;;19.30;75.10;;;;;;5059268;28;20025;-80
2023/09/26 10:32:41;;;;;;;15.05;3.20;;;19.30;75.20;;;;;;5056226;28;20032;-80
2023/09/26 10:35:15;;;;;;;16.50;3.72;;;19.30;75.30;;;;;;5068985;28;20387;-81
2023/09/26 10:38:00;;;;;;;10.27;2.90;;;19.20;75.80;;;;;;5073772;28;20041;-80
2023/09/26 10:40:27;;;;;;;12.25;3.28;;;19.20;76.00;;;;;;5073901;28;20024;-81
2023/09/26 10:42:55;;;;;;;8.60;2.53;;;19.20;76.00;;;;;;5071578;28;20147;-79
2023/09/26 10:45:22;;;;;;;11.60;3.00;;;19.20;76.20;;;;;;5073721;28;20020;-78
2023/09/26 10:47:50;;;;;;;11.32;2.30;;;19.20;76.40;;;;;;5075697;28;20150;-79
2023/09/26 10:50:18;;;;;;;8.32;2.53;;;19.20;76.50;;;;;;5072107;28;20055;-79
2023/09/26 10:52:48;;;;;;;8.20;2.38;;;19.10;76.20;;;;;;5073326;28;20096;-77
2023/09/26 10:55:20;;;;;;;7.95;3.15;;;19.20;76.10;;;;;;5053593;28;20025;-79
2023/09/26 10:57:51;;;;;;;10.07;2.33;;;19.20;75.60;;;;;;5053547;28;20017;-82
2023/09/26 11:00:19;;;;;;;13.25;3.17;;;19.20;75.30;;;;;;5055559;28;20040;-81
2023/09/26 11:02:53;;;;;;;10.60;2.47;;;19.20;75.40;;;;;;5061716;28;20383;-81
2023/09/26 11:05:21;;;;;;;14.70;2.75;;;19.20;75.20;;;;;;5062915;28;20032;-81
2023/09/26 11:07:51;;;;;;;10.20;2.60;;;19.20;74.90;;;;;;5071323;28;20066;-78
2023/09/26 11:10:19;;;;;;;12.02;2.60;;;19.20;75.20;;;;;;5063194;28;20029;-79
2023/09/26 11:12:47;;;;;;;7.70;2.13;;;19.20;75.40;;;;;;5055413;28;20147;-84
2023/09/26 11:15:15;;;;;;;5.55;1.85;;;19.10;75.50;;;;;;5070464;28;20032;-82
2023/09/26 11:17:49;;;;;;;10.25;2.67;;;19.10;75.40;;;;;;5072553;28;20025;-79
2023/09/26 11:20:17;;;;;;;9.57;2.58;;;19.10;75.20;;;;;;5077750;28;20031;-83
2023/09/26 11:22:52;;;;;;;10.82;2.33;;;19.10;75.10;;;;;;5074479;28;20048;-80
2023/09/26 11:25:20;;;;;;;8.70;2.53;;;19.10;75.20;;;;;;5072875;28;20028;-81
2023/09/26 11:27:48;;;;;;;7.03;2.45;;;19.10;75.20;;;;;;5066808;28;20057;-78
2023/09/26 11:30:20;;;;;;;7.60;2.50;;;19.00;75.00;;;;;;5061443;28;20029;-79
2023/09/26 11:32:52;;;;;;;10.23;2.70;;;19.10;75.10;;;;;;5085223;28;20041;-78
2023/09/26 11:35:25;;;;;;;9.65;2.58;;;19.10;75.10;;;;;;5072786;28;20383;-79
2023/09/26 11:37:54;;;;;;;13.38;3.40;;;19.00;75.20;;;;;;5071094;28;20110;-79
2023/09/26 11:40:29;;;;;;;10.68;2.42;;;19.00;75.30;;;;;;5063267;28;20391;-83
2023/09/26 11:43:03;;;;;;;11.82;2.88;;;19.00;75.30;;;;;;5072823;28;20024;-80
2023/09/26 11:45:30;;;;;;;13.98;2.80;;;18.90;75.60;;;;;;5072043;28;20033;-78
2023/09/26 11:48:00;;;;;;;8.68;2.75;;;18.90;75.70;;;;;;5052843;28;20379;-79
2023/09/26 11:50:29;;;;;;;5.85;2.20;;;18.80;75.90;;;;;;5052752;28;20082;-79
2023/09/26 11:53:03;;;;;;;5.93;1.90;;;18.90;76.00;;;;;;5062807;28;20557;-79
2023/09/26 11:55:35;;;;;;;10.02;2.53;;;18.80;75.90;;;;;;5069338;28;20032;-77
2023/09/26 11:58:03;;;;;;;10.57;2.72;;;18.90;76.10;;;;;;5072853;28;20104;-80
2023/09/26 12:00:32;;;;;;;13.23;2.70;;;18.80;76.30;;;;;;5069093;28;20020;-79
2023/09/26 12:02:59;;;;;;;13.55;2.67;;;18.80;76.50;;;;;;5076501;28;20022;-79
2023/09/26 12:05:26;;;;;;;10.43;2.90;;;18.80;76.70;;;;;;5071054;28;20027;-79
2023/09/26 12:07:54;;;;;;;13.38;3.03;;;18.80;77.20;;;;;;5074317;28;20029;-79
2023/09/26 12:10:22;;;;;;;7.22;3.08;;;18.80;77.50;;;;;;5060096;28;20029;-80
2023/09/26 12:12:49;;;;;;;6.78;2.47;;;18.70;77.40;;;;;;5052704;28;20021;-78
2023/09/26 12:15:21;;;;;;;8.98;2.28;;;18.70;77.50;;;;;;5063011;28;20132;-83
2023/09/26 12:17:53;;;;;;;10.02;2.85;;;18.70;77.60;;;;;;5069996;28;20422;-80
2023/09/26 12:20:24;;;;;;;11.10;3.03;;;18.70;77.70;;;;;;5069571;28;20029;-78
2023/09/26 12:22:56;;;;;;;10.48;2.42;;;18.80;77.80;;;;;;5071148;28;20033;-80
2023/09/26 12:25:25;;;;;;;10.25;2.85;;;18.80;77.80;;;;;;5065415;28;20501;-79
2023/09/26 12:27:53;;;;;;;11.27;3.38;;;18.80;77.90;;;;;;5065538;28;20542;-80
2023/09/26 12:30:21;;;;;;;8.93;2.72;;;18.80;77.70;;;;;;5071975;28;20060;-79
2023/09/26 12:32:49;;;;;;;12.85;2.40;;;18.80;77.90;;;;;;5072828;28;20016;-79
2023/09/26 12:35:17;;;;;;;10.82;2.78;;;18.80;78.10;;;;;;5068505;28;20029;-79
2023/09/26 12:37:45;;;;;;;11.75;3.60;;;18.80;77.90;;;;;;5072973;28;20135;-80
2023/09/26 12:40:12;;;;;;;8.30;2.75;;;18.80;78.20;;;;;;5071757;28;20036;-80
2023/09/26 12:42:41;;;;;;;6.90;2.50;;;18.80;78.30;;;;;;5073854;28;20093;-83
2023/09/26 12:45:09;;;;;;;6.68;2.45;;;18.70;78.30;;;;;;5072457;28;20529;-78
2023/09/26 12:47:37;;;;;;;8.90;3.00;;;18.70;78.70;;;;;;5068404;28;20021;-79